sensor_id;sensor_type;location;lat;lon;timestamp;temperature;humidity
30893;DHT22;17595;50.884;4.346;2022-09-25T00:00:22;15.90;99.90
30893;DHT22;17595;50.884;4.346;2022-09-25T00:02:48;15.90;99.90
30893;DHT22;17595;50.884;4.346;2022-09-25T00:05:14;15.90;99.90
30893;DHT22;17595;50.884;4.346;2022-09-25T00:07:39;16.00;99.90
30893;DHT22;17595;50.884;4.346;2022-09-25T00:10:05;16.00;99.90
30893;DHT22;17595;50.884;4.346;2022-09-25T00:12:31;16.00;99.90
30893;DHT22;17595;50.884;4.346;2022-09-25T00:14:56;16.00;99.90
30893;DHT22;17595;50.884;4.346;2022-09-25T00:17:22;16.00;99.90
30893;DHT22;17595;50.884;4.346;2022-09-25T00:19:48;16.00;99.90
30893;DHT22;17595;50.884;4.346;2022-09-25T00:22:18;16.00;99.90
30893;DHT22;17595;50.884;4.346;2022-09-25T00:24:44;16.00;99.90
30893;DHT22;17595;50.884;4.346;2022-09-25T00:27:10;16.00;99.90
30893;DHT22;17595;50.884;4.346;2022-09-25T00:29:36;15.90;99.90
30893;DHT22;17595;50.884;4.346;2022-09-25T00:32:05;15.80;99.90
30893;DHT22;17595;50.884;4.346;2022-09-25T00:34:30;15.80;99.90
30893;DHT22;17595;50.884;4.346;2022-09-25T00:36:56;15.80;99.90
30893;DHT22;17595;50.884;4.346;2022-09-25T00:39:22;15.60;99.90
30893;DHT22;17595;50.884;4.346;2022-09-25T00:41:48;15.60;99.90
30893;DHT22;17595;50.884;4.346;2022-09-25T00:49:52;15.80;99.90
30893;DHT22;17595;50.884;4.346;2022-09-25T00:52:19;15.70;99.90
30893;DHT22;17595;50.884;4.346;2022-09-25T00:54:50;15.80;99.90
30893;DHT22;17595;50.884;4.346;2022-09-25T00:57:20;15.80;99.90
30893;DHT22;17595;50.884;4.346;2022-09-25T00:59:53;15.80;99.90
30893;DHT22;17595;50.884;4.346;2022-09-25T01:02:29;15.90;99.90
30893;DHT22;17595;50.884;4.346;2022-09-25T01:04:58;15.90;99.90
30893;DHT22;17595;50.884;4.346;2022-09-25T01:07:24;15.90;99.90
30893;DHT22;17595;50.884;4.346;2022-09-25T01:09:50;15.80;99.90
30893;DHT22;17595;50.884;4.346;2022-09-25T01:12:16;15.70;99.90
30893;DHT22;17595;50.884;4.346;2022-09-25T01:14:42;15.70;99.90
30893;DHT22;17595;50.884;4.346;2022-09-25T01:17:28;15.70;99.90
30893;DHT22;17595;50.884;4.346;2022-09-25T01:30:41;15.80;99.90
30893;DHT22;17595;50.884;4.346;2022-09-25T01:38:23;15.80;99.90
30893;DHT22;17595;50.884;4.346;2022-09-25T01:40:59;15.80;99.90
30893;DHT22;17595;50.884;4.346;2022-09-25T01:43:47;15.70;99.90
30893;DHT22;17595;50.884;4.346;2022-09-25T01:46:26;15.80;99.90
30893;DHT22;17595;50.884;4.346;2022-09-25T01:48:56;15.70;99.90
30893;DHT22;17595;50.884;4.346;2022-09-25T01:51:38;15.60;99.90
30893;DHT22;17595;50.884;4.346;2022-09-25T01:54:11;15.50;99.90
30893;DHT22;17595;50.884;4.346;2022-09-25T01:56:48;15.50;99.90
30893;DHT22;17595;50.884;4.346;2022-09-25T01:59:19;15.40;99.90
30893;DHT22;17595;50.884;4.346;2022-09-25T02:01:48;15.50;99.90
30893;DHT22;17595;50.884;4.346;2022-09-25T02:04:25;15.50;99.90
30893;DHT22;17595;50.884;4.346;2022-09-25T02:06:55;15.40;99.90
30893;DHT22;17595;50.884;4.346;2022-09-25T02:09:33;15.40;99.90
30893;DHT22;17595;50.884;4.346;2022-09-25T02:12:10;15.30;99.90
30893;DHT22;17595;50.884;4.346;2022-09-25T02:14:45;15.30;99.90
30893;DHT22;17595;50.884;4.346;2022-09-25T02:17:18;15.20;99.90
30893;DHT22;17595;50.884;4.346;2022-09-25T02:20:04;15.10;99.90
30893;DHT22;17595;50.884;4.346;2022-09-25T02:22:50;15.10;99.90
30893;DHT22;17595;50.884;4.346;2022-09-25T02:25:36;15.10;99.90
30893;DHT22;17595;50.884;4.346;2022-09-25T02:28:02;15.10;99.90
30893;DHT22;17595;50.884;4.346;2022-09-25T02:30:28;15.10;99.90
30893;DHT22;17595;50.884;4.346;2022-09-25T02:32:54;15.10;99.90
30893;DHT22;17595;50.884;4.346;2022-09-25T02:35:23;15.10;99.90
30893;DHT22;17595;50.884;4.346;2022-09-25T02:37:48;15.10;99.90
30893;DHT22;17595;50.884;4.346;2022-09-25T02:40:14;15.00;99.90
30893;DHT22;17595;50.884;4.346;2022-09-25T02:42:51;15.00;99.90
30893;DHT22;17595;50.884;4.346;2022-09-25T02:48:09;15.00;99.90
30893;DHT22;17595;50.884;4.346;2022-09-25T02:53:32;14.90;99.90
30893;DHT22;17595;50.884;4.346;2022-09-25T02:56:27;14.90;99.90
30893;DHT22;17595;50.884;4.346;2022-09-25T02:58:57;14.90;99.90
30893;DHT22;17595;50.884;4.346;2022-09-25T03:01:25;14.90;99.90
30893;DHT22;17595;50.884;4.346;2022-09-25T03:03:55;14.90;99.90
30893;DHT22;17595;50.884;4.346;2022-09-25T03:06:22;14.90;99.90
30893;DHT22;17595;50.884;4.346;2022-09-25T03:08:51;14.80;99.90
30893;DHT22;17595;50.884;4.346;2022-09-25T03:11:19;14.80;99.90
30893;DHT22;17595;50.884;4.346;2022-09-25T03:13:58;14.80;99.90
30893;DHT22;17595;50.884;4.346;2022-09-25T03:19:03;14.70;99.90
30893;DHT22;17595;50.884;4.346;2022-09-25T03:21:29;14.60;99.90
30893;DHT22;17595;50.884;4.346;2022-09-25T03:23:55;14.70;99.90
30893;DHT22;17595;50.884;4.346;2022-09-25T03:26:22;14.70;99.90
30893;DHT22;17595;50.884;4.346;2022-09-25T03:28:49;14.70;99.90
30893;DHT22;17595;50.884;4.346;2022-09-25T03:31:15;14.60;99.90
30893;DHT22;17595;50.884;4.346;2022-09-25T03:33:42;14.60;99.90
30893;DHT22;17595;50.884;4.346;2022-09-25T03:36:13;14.60;99.90
30893;DHT22;17595;50.884;4.346;2022-09-25T03:38:41;14.60;99.90
30893;DHT22;17595;50.884;4.346;2022-09-25T03:41:09;14.60;99.90
30893;DHT22;17595;50.884;4.346;2022-09-25T03:43:36;14.60;99.90
30893;DHT22;17595;50.884;4.346;2022-09-25T03:46:04;14.60;99.90
30893;DHT22;17595;50.884;4.346;2022-09-25T03:48:30;14.50;99.90
30893;DHT22;17595;50.884;4.346;2022-09-25T03:50:55;14.50;99.90
30893;DHT22;17595;50.884;4.346;2022-09-25T03:53:22;14.50;99.90
30893;DHT22;17595;50.884;4.346;2022-09-25T03:55:50;14.50;99.90
30893;DHT22;17595;50.884;4.346;2022-09-25T03:58:16;14.50;99.90
30893;DHT22;17595;50.884;4.346;2022-09-25T04:00:43;14.40;99.90
30893;DHT22;17595;50.884;4.346;2022-09-25T04:03:10;14.50;99.90
30893;DHT22;17595;50.884;4.346;2022-09-25T04:05:36;14.40;99.90
30893;DHT22;17595;50.884;4.346;2022-09-25T04:08:02;14.40;99.90
30893;DHT22;17595;50.884;4.346;2022-09-25T04:10:27;14.40;99.90
30893;DHT22;17595;50.884;4.346;2022-09-25T04:12:53;14.30;99.90
30893;DHT22;17595;50.884;4.346;2022-09-25T04:15:20;14.30;99.90
30893;DHT22;17595;50.884;4.346;2022-09-25T04:17:52;14.30;99.90
30893;DHT22;17595;50.884;4.346;2022-09-25T04:20:18;14.30;99.90
30893;DHT22;17595;50.884;4.346;2022-09-25T04:22:43;14.30;99.90
30893;DHT22;17595;50.884;4.346;2022-09-25T04:25:09;14.40;99.90
30893;DHT22;17595;50.884;4.346;2022-09-25T04:27:35;14.30;99.90
30893;DHT22;17595;50.884;4.346;2022-09-25T04:30:02;14.20;99.90
30893;DHT22;17595;50.884;4.346;2022-09-25T04:32:28;14.20;99.90
30893;DHT22;17595;50.884;4.346;2022-09-25T04:35:12;14.20;99.90
30893;DHT22;17595;50.884;4.346;2022-09-25T04:37:38;14.20;99.90
30893;DHT22;17595;50.884;4.346;2022-09-25T04:40:03;14.20;99.90
30893;DHT22;17595;50.884;4.346;2022-09-25T04:42:29;14.30;99.90
30893;DHT22;17595;50.884;4.346;2022-09-25T04:44:56;14.30;99.90
30893;DHT22;17595;50.884;4.346;2022-09-25T04:47:24;14.20;99.90
30893;DHT22;17595;50.884;4.346;2022-09-25T04:49:51;14.20;99.90
30893;DHT22;17595;50.884;4.346;2022-09-25T04:52:17;14.20;99.90
30893;DHT22;17595;50.884;4.346;2022-09-25T04:54:44;14.10;99.90
30893;DHT22;17595;50.884;4.346;2022-09-25T04:57:17;14.10;99.90
30893;DHT22;17595;50.884;4.346;2022-09-25T04:59:43;14.20;99.90
30893;DHT22;17595;50.884;4.346;2022-09-25T05:02:10;14.20;99.90
30893;DHT22;17595;50.884;4.346;2022-09-25T05:04:35;14.20;99.90
30893;DHT22;17595;50.884;4.346;2022-09-25T05:07:01;14.20;99.90
30893;DHT22;17595;50.884;4.346;2022-09-25T05:09:27;14.20;99.90
30893;DHT22;17595;50.884;4.346;2022-09-25T05:11:52;14.10;99.90
30893;DHT22;17595;50.884;4.346;2022-09-25T05:14:18;14.10;99.90
30893;DHT22;17595;50.884;4.346;2022-09-25T05:16:45;14.10;99.90
30893;DHT22;17595;50.884;4.346;2022-09-25T05:19:11;14.00;99.90
30893;DHT22;17595;50.884;4.346;2022-09-25T05:21:37;13.90;99.90
30893;DHT22;17595;50.884;4.346;2022-09-25T05:24:02;14.00;99.90
30893;DHT22;17595;50.884;4.346;2022-09-25T05:26:28;13.90;99.90
30893;DHT22;17595;50.884;4.346;2022-09-25T05:28:54;14.00;99.90
30893;DHT22;17595;50.884;4.346;2022-09-25T05:31:20;14.00;99.90
30893;DHT22;17595;50.884;4.346;2022-09-25T05:33:46;14.00;99.90
30893;DHT22;17595;50.884;4.346;2022-09-25T05:36:12;13.90;99.90
30893;DHT22;17595;50.884;4.346;2022-09-25T05:38:38;13.90;99.90
30893;DHT22;17595;50.884;4.346;2022-09-25T05:41:06;13.80;99.90
30893;DHT22;17595;50.884;4.346;2022-09-25T05:43:34;13.80;99.90
30893;DHT22;17595;50.884;4.346;2022-09-25T05:46:02;13.80;99.90
30893;DHT22;17595;50.884;4.346;2022-09-25T05:48:27;13.80;99.90
30893;DHT22;17595;50.884;4.346;2022-09-25T05:50:54;13.80;99.90
30893;DHT22;17595;50.884;4.346;2022-09-25T05:53:20;13.90;99.90
30893;DHT22;17595;50.884;4.346;2022-09-25T05:55:53;13.90;99.90
30893;DHT22;17595;50.884;4.346;2022-09-25T05:58:19;13.90;99.90
30893;DHT22;17595;50.884;4.346;2022-09-25T06:00:46;13.80;99.90
30893;DHT22;17595;50.884;4.346;2022-09-25T06:03:12;13.80;99.90
30893;DHT22;17595;50.884;4.346;2022-09-25T06:05:39;13.70;99.90
30893;DHT22;17595;50.884;4.346;2022-09-25T06:08:05;13.80;99.90
30893;DHT22;17595;50.884;4.346;2022-09-25T06:41:34;12.60;99.90
30893;DHT22;17595;50.884;4.346;2022-09-25T06:44:01;12.50;99.90
30893;DHT22;17595;50.884;4.346;2022-09-25T06:46:26;12.60;99.90
30893;DHT22;17595;50.884;4.346;2022-09-25T06:48:55;12.70;99.90
30893;DHT22;17595;50.884;4.346;2022-09-25T06:51:24;12.90;99.90
30893;DHT22;17595;50.884;4.346;2022-09-25T06:53:55;13.10;99.90
30893;DHT22;17595;50.884;4.346;2022-09-25T06:56:21;13.30;99.90
30893;DHT22;17595;50.884;4.346;2022-09-25T06:58:47;13.50;99.90
30893;DHT22;17595;50.884;4.346;2022-09-25T07:01:12;13.60;99.90
30893;DHT22;17595;50.884;4.346;2022-09-25T07:03:38;13.70;99.90
30893;DHT22;17595;50.884;4.346;2022-09-25T07:06:22;13.90;99.90
30893;DHT22;17595;50.884;4.346;2022-09-25T07:08:49;14.00;99.90
30893;DHT22;17595;50.884;4.346;2022-09-25T07:11:20;14.10;99.90
30893;DHT22;17595;50.884;4.346;2022-09-25T07:13:46;14.20;99.90
30893;DHT22;17595;50.884;4.346;2022-09-25T07:16:15;14.30;99.90
30893;DHT22;17595;50.884;4.346;2022-09-25T07:18:41;14.40;99.90
30893;DHT22;17595;50.884;4.346;2022-09-25T07:21:14;14.50;99.90
30893;DHT22;17595;50.884;4.346;2022-09-25T07:23:41;14.60;99.90
30893;DHT22;17595;50.884;4.346;2022-09-25T07:26:18;14.60;99.90
30893;DHT22;17595;50.884;4.346;2022-09-25T07:28:48;14.70;99.90
30893;DHT22;17595;50.884;4.346;2022-09-25T07:31:19;14.70;99.90
30893;DHT22;17595;50.884;4.346;2022-09-25T07:33:45;14.70;99.90
30893;DHT22;17595;50.884;4.346;2022-09-25T07:36:12;14.60;99.90
30893;DHT22;17595;50.884;4.346;2022-09-25T07:38:38;14.70;99.90
30893;DHT22;17595;50.884;4.346;2022-09-25T07:41:05;14.70;99.90
30893;DHT22;17595;50.884;4.346;2022-09-25T07:43:32;14.60;99.90
30893;DHT22;17595;50.884;4.346;2022-09-25T07:45:58;14.70;99.90
30893;DHT22;17595;50.884;4.346;2022-09-25T07:48:24;14.60;99.90
30893;DHT22;17595;50.884;4.346;2022-09-25T07:50:49;14.50;99.90
30893;DHT22;17595;50.884;4.346;2022-09-25T07:53:18;14.50;99.90
30893;DHT22;17595;50.884;4.346;2022-09-25T07:55:46;14.60;99.90
30893;DHT22;17595;50.884;4.346;2022-09-25T07:58:13;14.60;99.90
30893;DHT22;17595;50.884;4.346;2022-09-25T08:00:38;14.60;99.90
30893;DHT22;17595;50.884;4.346;2022-09-25T08:03:05;14.80;99.90
30893;DHT22;17595;50.884;4.346;2022-09-25T08:05:31;15.00;99.90
30893;DHT22;17595;50.884;4.346;2022-09-25T08:07:56;15.10;99.90
30893;DHT22;17595;50.884;4.346;2022-09-25T08:10:22;15.10;99.90
30893;DHT22;17595;50.884;4.346;2022-09-25T08:12:48;15.30;99.90
30893;DHT22;17595;50.884;4.346;2022-09-25T08:15:14;15.40;99.90
30893;DHT22;17595;50.884;4.346;2022-09-25T08:17:40;15.40;99.90
30893;DHT22;17595;50.884;4.346;2022-09-25T08:20:07;15.40;99.90
30893;DHT22;17595;50.884;4.346;2022-09-25T08:22:33;15.50;99.90
30893;DHT22;17595;50.884;4.346;2022-09-25T08:24:59;15.60;99.90
30893;DHT22;17595;50.884;4.346;2022-09-25T08:27:28;15.50;99.90
30893;DHT22;17595;50.884;4.346;2022-09-25T08:29:54;15.40;99.90
30893;DHT22;17595;50.884;4.346;2022-09-25T08:32:19;15.30;99.90
30893;DHT22;17595;50.884;4.346;2022-09-25T08:34:45;15.30;99.90
30893;DHT22;17595;50.884;4.346;2022-09-25T08:37:10;15.20;99.90
30893;DHT22;17595;50.884;4.346;2022-09-25T08:39:36;15.40;99.90
30893;DHT22;17595;50.884;4.346;2022-09-25T08:42:02;15.60;99.90
30893;DHT22;17595;50.884;4.346;2022-09-25T08:44:40;15.70;99.90
30893;DHT22;17595;50.884;4.346;2022-09-25T08:47:24;15.70;99.90
30893;DHT22;17595;50.884;4.346;2022-09-25T08:50:12;15.60;99.90
30893;DHT22;17595;50.884;4.346;2022-09-25T08:52:39;15.60;99.90
30893;DHT22;17595;50.884;4.346;2022-09-25T08:55:22;15.80;99.90
30893;DHT22;17595;50.884;4.346;2022-09-25T08:57:49;15.80;99.90
30893;DHT22;17595;50.884;4.346;2022-09-25T09:00:16;15.60;99.90
30893;DHT22;17595;50.884;4.346;2022-09-25T09:02:50;15.50;99.90
30893;DHT22;17595;50.884;4.346;2022-09-25T09:05:30;15.50;99.90
30893;DHT22;17595;50.884;4.346;2022-09-25T09:08:04;15.40;99.90
30893;DHT22;17595;50.884;4.346;2022-09-25T09:13:16;15.70;99.90
30893;DHT22;17595;50.884;4.346;2022-09-25T09:18:37;16.10;99.90
30893;DHT22;17595;50.884;4.346;2022-09-25T09:24:06;16.10;99.90
30893;DHT22;17595;50.884;4.346;2022-09-25T09:38:02;16.60;99.90
30893;DHT22;17595;50.884;4.346;2022-09-25T09:43:45;16.70;99.90
30893;DHT22;17595;50.884;4.346;2022-09-25T09:49:16;16.60;99.90
30893;DHT22;17595;50.884;4.346;2022-09-25T09:52:00;16.50;99.90
30893;DHT22;17595;50.884;4.346;2022-09-25T09:57:44;16.60;99.90
30893;DHT22;17595;50.884;4.346;2022-09-25T10:00:15;16.80;99.90
30893;DHT22;17595;50.884;4.346;2022-09-25T10:02:58;16.80;99.90
30893;DHT22;17595;50.884;4.346;2022-09-25T10:05:35;16.70;99.90
30893;DHT22;17595;50.884;4.346;2022-09-25T10:08:02;16.60;99.90
30893;DHT22;17595;50.884;4.346;2022-09-25T10:10:37;16.60;99.90
30893;DHT22;17595;50.884;4.346;2022-09-25T10:13:15;16.60;99.90
30893;DHT22;17595;50.884;4.346;2022-09-25T10:15:46;16.50;99.90
30893;DHT22;17595;50.884;4.346;2022-09-25T10:18:14;16.30;99.90
30893;DHT22;17595;50.884;4.346;2022-09-25T10:20:44;16.30;99.90
30893;DHT22;17595;50.884;4.346;2022-09-25T10:25:49;17.00;99.90
30893;DHT22;17595;50.884;4.346;2022-09-25T10:28:29;17.40;99.90
30893;DHT22;17595;50.884;4.346;2022-09-25T10:30:57;17.70;99.90
30893;DHT22;17595;50.884;4.346;2022-09-25T10:33:28;17.70;99.90
30893;DHT22;17595;50.884;4.346;2022-09-25T10:35:55;17.30;99.90
30893;DHT22;17595;50.884;4.346;2022-09-25T10:41:32;16.90;99.90
30893;DHT22;17595;50.884;4.346;2022-09-25T10:43:54;16.90;99.90
30893;DHT22;17595;50.884;4.346;2022-09-25T10:49:23;17.00;99.90
30893;DHT22;17595;50.884;4.346;2022-09-25T10:52:10;17.10;99.90
30893;DHT22;17595;50.884;4.346;2022-09-25T10:54:36;17.30;99.90
30893;DHT22;17595;50.884;4.346;2022-09-25T10:59:51;17.50;99.90
30893;DHT22;17595;50.884;4.346;2022-09-25T11:02:33;17.60;99.90
30893;DHT22;17595;50.884;4.346;2022-09-25T11:05:00;17.70;99.90
30893;DHT22;17595;50.884;4.346;2022-09-25T11:07:26;18.00;99.90
30893;DHT22;17595;50.884;4.346;2022-09-25T11:09:52;18.10;99.90
30893;DHT22;17595;50.884;4.346;2022-09-25T11:12:22;17.90;99.90
30893;DHT22;17595;50.884;4.346;2022-09-25T11:15:03;17.90;99.90
30893;DHT22;17595;50.884;4.346;2022-09-25T11:17:41;18.30;99.90
30893;DHT22;17595;50.884;4.346;2022-09-25T11:20:21;18.60;99.90
30893;DHT22;17595;50.884;4.346;2022-09-25T11:22:52;18.80;99.90
30893;DHT22;17595;50.884;4.346;2022-09-25T11:25:40;19.00;99.90
30893;DHT22;17595;50.884;4.346;2022-09-25T11:28:15;19.20;99.90
30893;DHT22;17595;50.884;4.346;2022-09-25T11:30:52;19.30;99.90
30893;DHT22;17595;50.884;4.346;2022-09-25T11:33:42;18.90;99.90
30893;DHT22;17595;50.884;4.346;2022-09-25T11:39:02;18.70;99.90
30893;DHT22;17595;50.884;4.346;2022-09-25T11:42:15;18.60;99.90
30893;DHT22;17595;50.884;4.346;2022-09-25T11:45:02;18.50;99.90
30893;DHT22;17595;50.884;4.346;2022-09-25T11:47:41;18.20;99.90
30893;DHT22;17595;50.884;4.346;2022-09-25T11:50:15;18.30;99.90
30893;DHT22;17595;50.884;4.346;2022-09-25T12:04:25;19.10;99.90
30893;DHT22;17595;50.884;4.346;2022-09-25T12:07:16;19.10;99.90
30893;DHT22;17595;50.884;4.346;2022-09-25T12:09:59;19.30;99.90
30893;DHT22;17595;50.884;4.346;2022-09-25T12:15:17;18.50;99.90
30893;DHT22;17595;50.884;4.346;2022-09-25T12:23:37;19.40;99.90
30893;DHT22;17595;50.884;4.346;2022-09-25T12:35:02;19.30;99.90
30893;DHT22;17595;50.884;4.346;2022-09-25T12:37:42;19.30;99.90
30893;DHT22;17595;50.884;4.346;2022-09-25T12:40:21;19.10;99.90
30893;DHT22;17595;50.884;4.346;2022-09-25T12:43:01;19.00;99.90
30893;DHT22;17595;50.884;4.346;2022-09-25T12:45:42;18.30;99.90
30893;DHT22;17595;50.884;4.346;2022-09-25T12:48:32;18.10;99.90
30893;DHT22;17595;50.884;4.346;2022-09-25T12:51:21;18.00;99.90
30893;DHT22;17595;50.884;4.346;2022-09-25T12:59:35;18.00;99.90
30893;DHT22;17595;50.884;4.346;2022-09-25T13:02:19;18.20;99.90
30893;DHT22;17595;50.884;4.346;2022-09-25T13:05:10;18.50;99.90
30893;DHT22;17595;50.884;4.346;2022-09-25T13:13:01;19.20;99.90
30893;DHT22;17595;50.884;4.346;2022-09-25T13:15:35;19.10;99.90
30893;DHT22;17595;50.884;4.346;2022-09-25T13:18:04;18.60;99.90
30893;DHT22;17595;50.884;4.346;2022-09-25T13:23:08;18.10;99.90
30893;DHT22;17595;50.884;4.346;2022-09-25T13:25:47;17.90;99.90
30893;DHT22;17595;50.884;4.346;2022-09-25T13:28:22;17.70;99.90
30893;DHT22;17595;50.884;4.346;2022-09-25T13:33:25;17.50;99.90
30893;DHT22;17595;50.884;4.346;2022-09-25T13:36:09;17.50;99.90
30893;DHT22;17595;50.884;4.346;2022-09-25T13:38:44;17.50;99.90
30893;DHT22;17595;50.884;4.346;2022-09-25T13:41:29;17.60;99.90
30893;DHT22;17595;50.884;4.346;2022-09-25T13:49:53;17.90;99.90
30893;DHT22;17595;50.884;4.346;2022-09-25T13:52:30;18.10;99.90
30893;DHT22;17595;50.884;4.346;2022-09-25T13:55:17;18.10;99.90
30893;DHT22;17595;50.884;4.346;2022-09-25T14:06:04;18.30;99.90
30893;DHT22;17595;50.884;4.346;2022-09-25T14:08:39;18.20;99.90
30893;DHT22;17595;50.884;4.346;2022-09-25T14:11:08;18.50;99.90
30893;DHT22;17595;50.884;4.346;2022-09-25T14:13:34;18.70;99.90
30893;DHT22;17595;50.884;4.346;2022-09-25T14:16:01;18.60;99.90
30893;DHT22;17595;50.884;4.346;2022-09-25T14:18:41;18.50;99.90
30893;DHT22;17595;50.884;4.346;2022-09-25T14:21:11;18.10;99.90
30893;DHT22;17595;50.884;4.346;2022-09-25T14:23:50;17.80;99.90
30893;DHT22;17595;50.884;4.346;2022-09-25T14:26:19;18.00;99.90
30893;DHT22;17595;50.884;4.346;2022-09-25T14:28:47;18.00;99.90
30893;DHT22;17595;50.884;4.346;2022-09-25T14:45:18;17.70;99.90
30893;DHT22;17595;50.884;4.346;2022-09-25T14:47:47;17.50;99.90
30893;DHT22;17595;50.884;4.346;2022-09-25T14:50:38;17.50;99.90
30893;DHT22;17595;50.884;4.346;2022-09-25T14:53:17;17.50;99.90
30893;DHT22;17595;50.884;4.346;2022-09-25T14:55:48;17.40;99.90
30893;DHT22;17595;50.884;4.346;2022-09-25T14:58:19;17.50;99.90
30893;DHT22;17595;50.884;4.346;2022-09-25T15:00:48;17.50;99.90
30893;DHT22;17595;50.884;4.346;2022-09-25T15:08:55;17.30;99.90
30893;DHT22;17595;50.884;4.346;2022-09-25T15:11:25;17.20;99.90
30893;DHT22;17595;50.884;4.346;2022-09-25T15:14:07;17.10;99.90
30893;DHT22;17595;50.884;4.346;2022-09-25T15:16:35;17.10;99.90
30893;DHT22;17595;50.884;4.346;2022-09-25T15:19:29;17.20;99.90
30893;DHT22;17595;50.884;4.346;2022-09-25T15:21:55;17.10;99.90
30893;DHT22;17595;50.884;4.346;2022-09-25T15:24:25;17.20;99.90
30893;DHT22;17595;50.884;4.346;2022-09-25T15:26:57;17.40;99.90
30893;DHT22;17595;50.884;4.346;2022-09-25T15:29:29;17.50;99.90
30893;DHT22;17595;50.884;4.346;2022-09-25T15:31:57;17.50;99.90
30893;DHT22;17595;50.884;4.346;2022-09-25T15:34:28;17.40;99.90
30893;DHT22;17595;50.884;4.346;2022-09-25T15:37:13;17.50;99.90
30893;DHT22;17595;50.884;4.346;2022-09-25T15:39:42;17.40;99.90
30893;DHT22;17595;50.884;4.346;2022-09-25T15:42:13;17.50;99.90
30893;DHT22;17595;50.884;4.346;2022-09-25T15:44:40;17.70;99.90
30893;DHT22;17595;50.884;4.346;2022-09-25T15:47:05;17.70;99.90
30893;DHT22;17595;50.884;4.346;2022-09-25T15:49:45;17.80;99.90
30893;DHT22;17595;50.884;4.346;2022-09-25T15:52:20;17.70;99.90
30893;DHT22;17595;50.884;4.346;2022-09-25T15:54:46;17.60;99.90
30893;DHT22;17595;50.884;4.346;2022-09-25T15:57:16;17.60;99.90
30893;DHT22;17595;50.884;4.346;2022-09-25T15:59:48;17.50;99.90
30893;DHT22;17595;50.884;4.346;2022-09-25T16:02:37;17.50;99.90
30893;DHT22;17595;50.884;4.346;2022-09-25T16:05:27;17.60;99.90
30893;DHT22;17595;50.884;4.346;2022-09-25T16:10:48;17.80;99.90
30893;DHT22;17595;50.884;4.346;2022-09-25T16:13:23;17.90;99.90
30893;DHT22;17595;50.884;4.346;2022-09-25T16:15:50;17.50;99.90
30893;DHT22;17595;50.884;4.346;2022-09-25T16:21:17;17.40;99.90
30893;DHT22;17595;50.884;4.346;2022-09-25T16:23:50;17.30;99.90
30893;DHT22;17595;50.884;4.346;2022-09-25T16:26:18;17.20;99.90
30893;DHT22;17595;50.884;4.346;2022-09-25T16:29:03;17.10;99.90
30893;DHT22;17595;50.884;4.346;2022-09-25T16:31:31;16.90;99.90
30893;DHT22;17595;50.884;4.346;2022-09-25T16:33:57;16.80;99.90
30893;DHT22;17595;50.884;4.346;2022-09-25T16:36:26;16.70;99.90
30893;DHT22;17595;50.884;4.346;2022-09-25T16:41:32;16.70;99.90
30893;DHT22;17595;50.884;4.346;2022-09-25T16:44:26;16.70;99.90
30893;DHT22;17595;50.884;4.346;2022-09-25T16:49:24;17.00;99.90
30893;DHT22;17595;50.884;4.346;2022-09-25T16:51:52;16.80;99.90
30893;DHT22;17595;50.884;4.346;2022-09-25T16:54:19;16.80;99.90
30893;DHT22;17595;50.884;4.346;2022-09-25T16:56:46;16.70;99.90
30893;DHT22;17595;50.884;4.346;2022-09-25T16:59:16;16.70;99.90
30893;DHT22;17595;50.884;4.346;2022-09-25T17:01:42;16.60;99.90
30893;DHT22;17595;50.884;4.346;2022-09-25T17:04:10;16.70;99.90
30893;DHT22;17595;50.884;4.346;2022-09-25T17:06:36;16.60;99.90
30893;DHT22;17595;50.884;4.346;2022-09-25T17:09:09;16.60;99.90
30893;DHT22;17595;50.884;4.346;2022-09-25T17:11:36;16.60;99.90
30893;DHT22;17595;50.884;4.346;2022-09-25T17:14:02;16.80;99.90
30893;DHT22;17595;50.884;4.346;2022-09-25T17:16:29;16.70;99.90
30893;DHT22;17595;50.884;4.346;2022-09-25T17:18:55;16.70;99.90
30893;DHT22;17595;50.884;4.346;2022-09-25T17:21:20;16.80;99.90
30893;DHT22;17595;50.884;4.346;2022-09-25T17:23:46;16.90;99.90
30893;DHT22;17595;50.884;4.346;2022-09-25T17:26:20;16.80;99.90
30893;DHT22;17595;50.884;4.346;2022-09-25T17:28:46;16.70;99.90
30893;DHT22;17595;50.884;4.346;2022-09-25T17:31:16;16.80;99.90
30893;DHT22;17595;50.884;4.346;2022-09-25T17:33:45;16.90;99.90
30893;DHT22;17595;50.884;4.346;2022-09-25T17:36:11;16.80;99.90
30893;DHT22;17595;50.884;4.346;2022-09-25T17:38:37;16.70;99.90
30893;DHT22;17595;50.884;4.346;2022-09-25T17:41:13;16.50;99.90
30893;DHT22;17595;50.884;4.346;2022-09-25T17:43:41;16.50;99.90
30893;DHT22;17595;50.884;4.346;2022-09-25T17:46:08;16.40;99.90
30893;DHT22;17595;50.884;4.346;2022-09-25T17:48:34;16.30;99.90
30893;DHT22;17595;50.884;4.346;2022-09-25T17:51:02;16.40;99.90
30893;DHT22;17595;50.884;4.346;2022-09-25T17:53:32;16.50;99.90
30893;DHT22;17595;50.884;4.346;2022-09-25T17:55:59;16.70;99.90
30893;DHT22;17595;50.884;4.346;2022-09-25T17:58:27;16.60;99.90
30893;DHT22;17595;50.884;4.346;2022-09-25T18:00:53;16.60;99.90
30893;DHT22;17595;50.884;4.346;2022-09-25T18:03:20;16.60;99.90
30893;DHT22;17595;50.884;4.346;2022-09-25T18:05:46;16.70;99.90
30893;DHT22;17595;50.884;4.346;2022-09-25T18:08:12;16.70;99.90
30893;DHT22;17595;50.884;4.346;2022-09-25T18:10:39;16.80;99.90
30893;DHT22;17595;50.884;4.346;2022-09-25T18:13:06;16.70;99.90
30893;DHT22;17595;50.884;4.346;2022-09-25T18:15:33;16.70;99.90
30893;DHT22;17595;50.884;4.346;2022-09-25T18:18:01;16.70;99.90
30893;DHT22;17595;50.884;4.346;2022-09-25T18:20:26;16.60;99.90
30893;DHT22;17595;50.884;4.346;2022-09-25T18:23:10;16.50;99.90
30893;DHT22;17595;50.884;4.346;2022-09-25T18:25:39;16.60;99.90
30893;DHT22;17595;50.884;4.346;2022-09-25T18:28:05;16.80;99.90
30893;DHT22;17595;50.884;4.346;2022-09-25T18:30:31;16.80;99.90
30893;DHT22;17595;50.884;4.346;2022-09-25T18:32:57;16.80;99.90
30893;DHT22;17595;50.884;4.346;2022-09-25T18:35:23;16.80;99.90
30893;DHT22;17595;50.884;4.346;2022-09-25T18:37:48;16.80;99.90
30893;DHT22;17595;50.884;4.346;2022-09-25T18:40:17;16.80;99.90
30893;DHT22;17595;50.884;4.346;2022-09-25T18:42:44;16.90;99.90
30893;DHT22;17595;50.884;4.346;2022-09-25T18:45:11;16.90;99.90
30893;DHT22;17595;50.884;4.346;2022-09-25T18:47:39;16.90;99.90
30893;DHT22;17595;50.884;4.346;2022-09-25T18:50:05;16.90;99.90
30893;DHT22;17595;50.884;4.346;2022-09-25T18:52:31;16.90;99.90
30893;DHT22;17595;50.884;4.346;2022-09-25T18:54:57;16.90;99.90
30893;DHT22;17595;50.884;4.346;2022-09-25T18:57:25;16.90;99.90
30893;DHT22;17595;50.884;4.346;2022-09-25T18:59:51;16.90;99.90
30893;DHT22;17595;50.884;4.346;2022-09-25T19:02:23;16.90;99.90
30893;DHT22;17595;50.884;4.346;2022-09-25T19:04:51;17.00;99.90